sensor_id;sensor_type;location;lat;lon;timestamp;pressure;altitude;pressure_sealevel;temperature;humidity
60820;BME280;46641;48.904;9.126;2023-06-24T00:01:28;99416.91;;;25.47;40.08
60820;BME280;46641;48.904;9.126;2023-06-24T00:06:19;99426.66;;;25.41;40.26
60820;BME280;46641;48.904;9.126;2023-06-24T00:11:09;99421.94;;;25.37;39.96
60820;BME280;46641;48.904;9.126;2023-06-24T00:16:00;99429.84;;;25.32;40.21
60820;BME280;46641;48.904;9.126;2023-06-24T00:20:50;99439.59;;;25.26;40.18
60820;BME280;46641;48.904;9.126;2023-06-24T00:25:41;99426.81;;;25.22;40.24
60820;BME280;46641;48.904;9.126;2023-06-24T00:30:32;99422.13;;;25.17;40.25
60820;BME280;46641;48.904;9.126;2023-06-24T00:35:22;99429.16;;;25.11;40.19
60820;BME280;46641;48.904;9.126;2023-06-24T00:40:13;99431.69;;;25.06;40.22
60820;BME280;46641;48.904;9.126;2023-06-24T00:45:08;99426.38;;;25.00;40.36
60820;BME280;46641;48.904;9.126;2023-06-24T00:49:58;99428.69;;;24.96;40.65
60820;BME280;46641;48.904;9.126;2023-06-24T00:54:48;99419.88;;;24.89;41.10
60820;BME280;46641;48.904;9.126;2023-06-24T00:59:40;99426.69;;;24.85;40.95
60820;BME280;46641;48.904;9.126;2023-06-24T01:04:33;99431.91;;;24.80;40.82
60820;BME280;46641;48.904;9.126;2023-06-24T01:09:25;99427.19;;;24.75;40.78
60820;BME280;46641;48.904;9.126;2023-06-24T01:14:15;99430.72;;;24.69;40.75
60820;BME280;46641;48.904;9.126;2023-06-24T01:30:17;99417.69;;;24.47;41.10
60820;BME280;46641;48.904;9.126;2023-06-24T01:35:19;99414.03;;;24.42;41.61
60820;BME280;46641;48.904;9.126;2023-06-24T01:40:27;99413.81;;;24.37;41.19
60820;BME280;46641;48.904;9.126;2023-06-24T01:45:29;99405.00;;;24.30;41.10
60820;BME280;46641;48.904;9.126;2023-06-24T01:50:22;99404.84;;;24.24;41.53
60820;BME280;46641;48.904;9.126;2023-06-24T01:55:17;99415.34;;;24.19;41.57
60820;BME280;46641;48.904;9.126;2023-06-24T02:00:10;99405.50;;;24.13;41.60
60820;BME280;46641;48.904;9.126;2023-06-24T02:05:02;99392.97;;;24.07;41.64
60820;BME280;46641;48.904;9.126;2023-06-24T02:09:54;99405.94;;;24.03;41.63
60820;BME280;46641;48.904;9.126;2023-06-24T02:14:45;99406.59;;;23.99;42.09
60820;BME280;46641;48.904;9.126;2023-06-24T02:19:37;99402.91;;;23.93;41.50
60820;BME280;46641;48.904;9.126;2023-06-24T02:24:28;99404.56;;;23.88;41.62
60820;BME280;46641;48.904;9.126;2023-06-24T02:29:19;99396.38;;;23.83;41.77
60820;BME280;46641;48.904;9.126;2023-06-24T02:34:10;99394.31;;;23.78;41.71
60820;BME280;46641;48.904;9.126;2023-06-24T02:39:00;99399.50;;;23.73;42.18
60820;BME280;46641;48.904;9.126;2023-06-24T02:43:51;99392.72;;;23.70;42.16
60820;BME280;46641;48.904;9.126;2023-06-24T02:48:42;99390.25;;;23.62;42.15
60820;BME280;46641;48.904;9.126;2023-06-24T02:53:37;99391.69;;;23.58;42.40
60820;BME280;46641;48.904;9.126;2023-06-24T02:58:27;99397.47;;;23.55;42.52
60820;BME280;46641;48.904;9.126;2023-06-24T03:03:21;99394.63;;;23.50;42.67
60820;BME280;46641;48.904;9.126;2023-06-24T03:08:12;99401.38;;;23.46;42.51
60820;BME280;46641;48.904;9.126;2023-06-24T03:13:02;99396.88;;;23.40;42.43
60820;BME280;46641;48.904;9.126;2023-06-24T03:17:53;99409.00;;;23.36;42.59
60820;BME280;46641;48.904;9.126;2023-06-24T03:22:43;99417.84;;;23.29;42.78
60820;BME280;46641;48.904;9.126;2023-06-24T03:27:34;99422.19;;;23.24;43.10
60820;BME280;46641;48.904;9.126;2023-06-24T03:32:25;99416.63;;;23.19;42.63
60820;BME280;46641;48.904;9.126;2023-06-24T03:37:15;99432.25;;;23.15;42.83
60820;BME280;46641;48.904;9.126;2023-06-24T03:42:06;99434.72;;;23.10;42.83
60820;BME280;46641;48.904;9.126;2023-06-24T03:46:56;99435.13;;;23.07;43.14
60820;BME280;46641;48.904;9.126;2023-06-24T03:51:46;99443.75;;;23.02;43.09
60820;BME280;46641;48.904;9.126;2023-06-24T03:56:37;99448.06;;;22.97;43.45
60820;BME280;46641;48.904;9.126;2023-06-24T04:01:27;99443.94;;;22.94;43.30
60820;BME280;46641;48.904;9.126;2023-06-24T04:06:22;99446.41;;;22.89;43.50
60820;BME280;46641;48.904;9.126;2023-06-24T04:11:12;99458.28;;;22.86;43.49
60820;BME280;46641;48.904;9.126;2023-06-24T04:16:02;99468.56;;;22.83;43.79
60820;BME280;46641;48.904;9.126;2023-06-24T04:20:53;99472.47;;;22.80;44.33
60820;BME280;46641;48.904;9.126;2023-06-24T04:25:43;99466.69;;;22.77;44.40
60820;BME280;46641;48.904;9.126;2023-06-24T04:30:33;99473.06;;;22.76;44.62
60820;BME280;46641;48.904;9.126;2023-06-24T04:35:28;99471.63;;;22.73;44.63
60820;BME280;46641;48.904;9.126;2023-06-24T04:40:20;99477.38;;;22.70;45.12
60820;BME280;46641;48.904;9.126;2023-06-24T04:45:10;99482.72;;;22.70;45.63
60820;BME280;46641;48.904;9.126;2023-06-24T04:50:01;99484.75;;;22.68;46.12
60820;BME280;46641;48.904;9.126;2023-06-24T04:54:51;99481.47;;;22.66;46.27
60820;BME280;46641;48.904;9.126;2023-06-24T04:59:41;99476.13;;;22.66;46.12
60820;BME280;46641;48.904;9.126;2023-06-24T05:04:32;99479.00;;;22.64;46.74
60820;BME280;46641;48.904;9.126;2023-06-24T05:09:22;99475.50;;;22.64;46.87
60820;BME280;46641;48.904;9.126;2023-06-24T05:14:12;99479.81;;;22.65;47.15
60820;BME280;46641;48.904;9.126;2023-06-24T05:19:02;99483.31;;;22.66;47.03
60820;BME280;46641;48.904;9.126;2023-06-24T05:23:53;99489.47;;;22.66;47.45
60820;BME280;46641;48.904;9.126;2023-06-24T05:28:43;99485.78;;;22.67;47.56
60820;BME280;46641;48.904;9.126;2023-06-24T05:33:33;99486.38;;;22.56;47.70
60820;BME280;46641;48.904;9.126;2023-06-24T05:38:24;99503.97;;;22.37;47.60
60820;BME280;46641;48.904;9.126;2023-06-24T05:43:14;99497.56;;;22.31;47.38
60820;BME280;46641;48.904;9.126;2023-06-24T05:48:04;99495.72;;;22.32;47.54
60820;BME280;46641;48.904;9.126;2023-06-24T05:52:55;99502.09;;;22.31;48.26
60820;BME280;46641;48.904;9.126;2023-06-24T05:57:45;99506.78;;;22.29;47.92
60820;BME280;46641;48.904;9.126;2023-06-24T06:02:36;99508.06;;;21.98;48.96
60820;BME280;46641;48.904;9.126;2023-06-24T06:07:26;99498.25;;;22.47;47.01
60820;BME280;46641;48.904;9.126;2023-06-24T06:12:16;99490.09;;;22.68;46.49
60820;BME280;46641;48.904;9.126;2023-06-24T06:17:06;99503.88;;;22.78;46.47
60820;BME280;46641;48.904;9.126;2023-06-24T06:21:57;99497.28;;;22.81;46.27
60820;BME280;46641;48.904;9.126;2023-06-24T06:26:47;99488.06;;;22.83;46.35
60820;BME280;46641;48.904;9.126;2023-06-24T06:31:37;99493.22;;;22.85;46.32
60820;BME280;46641;48.904;9.126;2023-06-24T06:36:28;99487.03;;;22.84;46.04
60820;BME280;46641;48.904;9.126;2023-06-24T06:41:18;99483.53;;;22.84;45.81
60820;BME280;46641;48.904;9.126;2023-06-24T06:46:14;99481.50;;;22.79;45.85
60820;BME280;46641;48.904;9.126;2023-06-24T06:51:04;99481.28;;;22.81;46.16
60820;BME280;46641;48.904;9.126;2023-06-24T06:55:54;99472.28;;;22.82;45.84
60820;BME280;46641;48.904;9.126;2023-06-24T07:00:45;99481.69;;;22.84;45.90
60820;BME280;46641;48.904;9.126;2023-06-24T07:05:35;99481.28;;;22.87;45.66
60820;BME280;46641;48.904;9.126;2023-06-24T07:10:25;99475.53;;;22.91;45.53
60820;BME280;46641;48.904;9.126;2023-06-24T07:15:16;99483.38;;;22.92;45.94
60820;BME280;46641;48.904;9.126;2023-06-24T07:20:09;99474.97;;;22.95;45.83
60820;BME280;46641;48.904;9.126;2023-06-24T07:25:00;99473.53;;;22.99;45.50
60820;BME280;46641;48.904;9.126;2023-06-24T07:29:50;99470.25;;;23.04;45.59
60820;BME280;46641;48.904;9.126;2023-06-24T07:34:41;99472.31;;;23.08;45.55
60820;BME280;46641;48.904;9.126;2023-06-24T07:39:31;99466.97;;;23.15;45.11
60820;BME280;46641;48.904;9.126;2023-06-24T07:44:21;99467.38;;;23.19;45.56
60820;BME280;46641;48.904;9.126;2023-06-24T07:49:11;99480.97;;;23.24;44.96
60820;BME280;46641;48.904;9.126;2023-06-24T07:54:02;99467.38;;;23.25;45.28
60820;BME280;46641;48.904;9.126;2023-06-24T07:58:52;99461.41;;;23.30;45.06
60820;BME280;46641;48.904;9.126;2023-06-24T08:03:42;99457.91;;;23.36;45.17
60820;BME280;46641;48.904;9.126;2023-06-24T08:08:33;99461.63;;;23.42;44.94
60820;BME280;46641;48.904;9.126;2023-06-24T08:13:23;99456.69;;;23.45;45.08
60820;BME280;46641;48.904;9.126;2023-06-24T08:18:14;99443.31;;;23.52;44.76
60820;BME280;46641;48.904;9.126;2023-06-24T08:23:04;99448.03;;;23.56;44.67
60820;BME280;46641;48.904;9.126;2023-06-24T08:27:54;99448.03;;;23.63;44.77
60820;BME280;46641;48.904;9.126;2023-06-24T08:32:45;99442.69;;;23.70;44.71
60820;BME280;46641;48.904;9.126;2023-06-24T08:37:38;99440.41;;;23.80;44.74
60820;BME280;46641;48.904;9.126;2023-06-24T08:42:28;99443.06;;;23.87;44.57
60820;BME280;46641;48.904;9.126;2023-06-24T08:47:18;99432.94;;;23.95;44.51
60820;BME280;46641;48.904;9.126;2023-06-24T08:52:14;99437.63;;;24.07;44.40
60820;BME280;46641;48.904;9.126;2023-06-24T08:57:05;99431.59;;;24.18;42.73
60820;BME280;46641;48.904;9.126;2023-06-24T09:01:57;99438.84;;;24.11;41.92
60820;BME280;46641;48.904;9.126;2023-06-24T09:06:47;99436.47;;;24.34;42.18
60820;BME280;46641;48.904;9.126;2023-06-24T09:11:38;99430.66;;;24.51;42.14
60820;BME280;46641;48.904;9.126;2023-06-24T09:16:28;99440.22;;;24.65;42.03
60820;BME280;46641;48.904;9.126;2023-06-24T09:21:26;99427.78;;;24.77;41.94
60820;BME280;46641;48.904;9.126;2023-06-24T09:26:17;99424.03;;;24.85;42.30
60820;BME280;46641;48.904;9.126;2023-06-24T09:36:03;99402.44;;;25.05;43.24
60820;BME280;46641;48.904;9.126;2023-06-24T09:41:01;99404.00;;;25.19;43.03
60820;BME280;46641;48.904;9.126;2023-06-24T09:45:53;99402.00;;;25.33;44.09
60820;BME280;46641;48.904;9.126;2023-06-24T09:50:45;99406.53;;;25.51;44.52
60820;BME280;46641;48.904;9.126;2023-06-24T09:55:36;99400.16;;;25.70;44.54
60820;BME280;46641;48.904;9.126;2023-06-24T10:00:29;99396.06;;;25.86;44.79
60820;BME280;46641;48.904;9.126;2023-06-24T10:05:19;99391.28;;;26.06;44.90
60820;BME280;46641;48.904;9.126;2023-06-24T10:10:10;99385.66;;;26.26;44.90
60820;BME280;46641;48.904;9.126;2023-06-24T10:15:00;99376.25;;;26.47;45.23
60820;BME280;46641;48.904;9.126;2023-06-24T10:19:52;99385.28;;;26.65;45.34
60820;BME280;46641;48.904;9.126;2023-06-24T10:24:46;99376.69;;;26.86;45.38
60820;BME280;46641;48.904;9.126;2023-06-24T10:29:37;99359.66;;;27.04;45.70
60820;BME280;46641;48.904;9.126;2023-06-24T10:34:32;99356.03;;;27.22;45.20
60820;BME280;46641;48.904;9.126;2023-06-24T10:39:48;99356.47;;;27.42;45.23
60820;BME280;46641;48.904;9.126;2023-06-24T10:44:49;99346.63;;;27.60;45.32
60820;BME280;46641;48.904;9.126;2023-06-24T10:49:39;99346.47;;;27.78;45.50
60820;BME280;46641;48.904;9.126;2023-06-24T10:54:30;99336.59;;;27.95;45.56
60820;BME280;46641;48.904;9.126;2023-06-24T10:59:20;99327.16;;;28.10;45.54
60820;BME280;46641;48.904;9.126;2023-06-24T11:04:10;99317.81;;;28.29;45.47
60820;BME280;46641;48.904;9.126;2023-06-24T11:09:02;99324.31;;;28.45;45.82
60820;BME280;46641;48.904;9.126;2023-06-24T11:13:52;99315.41;;;28.61;45.56
60820;BME280;46641;48.904;9.126;2023-06-24T11:18:44;99309.44;;;28.76;46.06
60820;BME280;46641;48.904;9.126;2023-06-24T11:23:34;99308.03;;;28.91;45.79
60820;BME280;46641;48.904;9.126;2023-06-24T11:28:25;99298.81;;;29.03;45.75
60820;BME280;46641;48.904;9.126;2023-06-24T11:33:26;99293.88;;;29.17;45.44
60820;BME280;46641;48.904;9.126;2023-06-24T11:38:18;99289.19;;;29.29;45.63
60820;BME280;46641;48.904;9.126;2023-06-24T11:43:08;99288.22;;;29.41;45.59
60820;BME280;46641;48.904;9.126;2023-06-24T11:48:02;99281.63;;;29.53;45.58
60820;BME280;46641;48.904;9.126;2023-06-24T11:52:57;99277.22;;;29.64;45.70
60820;BME280;46641;48.904;9.126;2023-06-24T11:57:53;99261.13;;;29.74;45.67
60820;BME280;46641;48.904;9.126;2023-06-24T12:02:44;99260.41;;;29.84;45.07
60820;BME280;46641;48.904;9.126;2023-06-24T12:07:34;99264.00;;;29.95;45.06
60820;BME280;46641;48.904;9.126;2023-06-24T12:12:24;99254.31;;;29.99;44.88
60820;BME280;46641;48.904;9.126;2023-06-24T12:17:15;99250.59;;;30.05;45.20
60820;BME280;46641;48.904;9.126;2023-06-24T12:22:05;99244.44;;;30.10;44.82
60820;BME280;46641;48.904;9.126;2023-06-24T12:26:55;99231.78;;;30.15;44.86
60820;BME280;46641;48.904;9.126;2023-06-24T12:31:46;99227.53;;;30.19;44.76
60820;BME280;46641;48.904;9.126;2023-06-24T12:36:36;99216.25;;;30.27;44.76
60820;BME280;46641;48.904;9.126;2023-06-24T12:41:27;99217.09;;;30.33;44.54
60820;BME280;46641;48.904;9.126;2023-06-24T12:46:18;99219.06;;;30.43;44.22
60820;BME280;46641;48.904;9.126;2023-06-24T12:51:08;99206.41;;;30.48;44.17
60820;BME280;46641;48.904;9.126;2023-06-24T12:55:59;99210.22;;;30.58;43.54
60820;BME280;46641;48.904;9.126;2023-06-24T13:00:49;99191.59;;;30.61;43.49
60820;BME280;46641;48.904;9.126;2023-06-24T13:05:39;99198.94;;;30.66;43.40
60820;BME280;46641;48.904;9.126;2023-06-24T13:10:30;99186.78;;;30.68;43.26
60820;BME280;46641;48.904;9.126;2023-06-24T13:15:20;99190.03;;;30.70;43.14
60820;BME280;46641;48.904;9.126;2023-06-24T13:20:11;99184.38;;;30.72;43.14
60820;BME280;46641;48.904;9.126;2023-06-24T13:25:01;99176.50;;;30.70;43.18
60820;BME280;46641;48.904;9.126;2023-06-24T13:29:51;99173.28;;;30.68;42.71
60820;BME280;46641;48.904;9.126;2023-06-24T13:34:42;99169.19;;;30.66;42.61
60820;BME280;46641;48.904;9.126;2023-06-24T13:39:32;99175.13;;;30.68;42.74
60820;BME280;46641;48.904;9.126;2023-06-24T13:44:22;99171.91;;;30.66;42.23
60820;BME280;46641;48.904;9.126;2023-06-24T13:49:13;99168.38;;;30.65;42.38
60820;BME280;46641;48.904;9.126;2023-06-24T13:54:04;99159.19;;;30.66;42.29
60820;BME280;46641;48.904;9.126;2023-06-24T13:58:54;99157.06;;;30.68;42.36
60820;BME280;46641;48.904;9.126;2023-06-24T14:03:45;99159.19;;;30.66;42.47
60820;BME280;46641;48.904;9.126;2023-06-24T14:08:35;99157.88;;;30.69;42.16
60820;BME280;46641;48.904;9.126;2023-06-24T14:13:27;99151.66;;;30.68;41.92
60820;BME280;46641;48.904;9.126;2023-06-24T14:18:18;99146.78;;;30.70;41.86
60820;BME280;46641;48.904;9.126;2023-06-24T14:23:08;99148.66;;;30.70;42.14
60820;BME280;46641;48.904;9.126;2023-06-24T14:27:58;99134.06;;;30.71;42.05
60820;BME280;46641;48.904;9.126;2023-06-24T14:32:49;99137.63;;;30.71;42.03
60820;BME280;46641;48.904;9.126;2023-06-24T14:37:39;99124.91;;;30.72;42.10
60820;BME280;46641;48.904;9.126;2023-06-24T14:42:29;99126.53;;;30.73;42.09
60820;BME280;46641;48.904;9.126;2023-06-24T14:47:19;99114.34;;;30.70;42.17
60820;BME280;46641;48.904;9.126;2023-06-24T14:52:10;99106.53;;;30.69;41.45
60820;BME280;46641;48.904;9.126;2023-06-24T14:57:00;99106.25;;;30.70;41.68
60820;BME280;46641;48.904;9.126;2023-06-24T15:01:50;99112.72;;;30.69;42.00
60820;BME280;46641;48.904;9.126;2023-06-24T15:06:41;99103.81;;;30.69;41.67
60820;BME280;46641;48.904;9.126;2023-06-24T15:11:31;99099.22;;;30.69;41.39
60820;BME280;46641;48.904;9.126;2023-06-24T15:16:21;99093.81;;;30.69;41.39
60820;BME280;46641;48.904;9.126;2023-06-24T15:21:11;99084.63;;;30.70;41.63
60820;BME280;46641;48.904;9.126;2023-06-24T15:26:02;99084.63;;;30.70;41.57
60820;BME280;46641;48.904;9.126;2023-06-24T15:30:52;99079.78;;;30.72;41.80
60820;BME280;46641;48.904;9.126;2023-06-24T15:35:42;99078.97;;;30.72;41.36
60820;BME280;46641;48.904;9.126;2023-06-24T15:40:32;99073.28;;;30.73;41.21
60820;BME280;46641;48.904;9.126;2023-06-24T15:45:23;99073.56;;;30.72;41.53
60820;BME280;46641;48.904;9.126;2023-06-24T15:50:13;99074.09;;;30.74;41.51
60820;BME280;46641;48.904;9.126;2023-06-24T15:55:04;99057.63;;;30.76;39.70
60820;BME280;46641;48.904;9.126;2023-06-24T15:59:54;99069.50;;;30.17;29.04
60820;BME280;46641;48.904;9.126;2023-06-24T16:04:44;99064.31;;;30.05;29.88
60820;BME280;46641;48.904;9.126;2023-06-24T16:09:34;99052.50;;;30.16;30.51
60820;BME280;46641;48.904;9.126;2023-06-24T16:14:25;99054.88;;;30.08;31.10
60820;BME280;46641;48.904;9.126;2023-06-24T16:19:15;99045.59;;;30.41;33.29
60820;BME280;46641;48.904;9.126;2023-06-24T16:24:05;99045.66;;;30.56;32.84
60820;BME280;46641;48.904;9.126;2023-06-24T16:28:56;99037.56;;;30.61;33.83
60820;BME280;46641;48.904;9.126;2023-06-24T16:33:46;99039.47;;;30.66;33.76
60820;BME280;46641;48.904;9.126;2023-06-24T16:38:36;99034.59;;;30.68;34.23
60820;BME280;46641;48.904;9.126;2023-06-24T16:43:27;99039.47;;;30.71;34.53
60820;BME280;46641;48.904;9.126;2023-06-24T16:48:17;99033.81;;;30.72;34.20
60820;BME280;46641;48.904;9.126;2023-06-24T16:53:07;99025.44;;;30.74;35.06
60820;BME280;46641;48.904;9.126;2023-06-24T16:57:58;99029.78;;;30.75;35.35
60820;BME280;46641;48.904;9.126;2023-06-24T17:02:48;99028.97;;;30.74;35.37
60820;BME280;46641;48.904;9.126;2023-06-24T17:07:38;99029.78;;;30.75;35.33
60820;BME280;46641;48.904;9.126;2023-06-24T17:12:29;99023.56;;;30.74;35.26
60820;BME280;46641;48.904;9.126;2023-06-24T17:17:19;99016.53;;;30.73;35.36
60820;BME280;46641;48.904;9.126;2023-06-24T17:22:09;99019.22;;;30.73;35.74
60820;BME280;46641;48.904;9.126;2023-06-24T17:27:00;99014.09;;;30.72;34.81
60820;BME280;46641;48.904;9.126;2023-06-24T17:31:50;99016.53;;;30.68;36.01
60820;BME280;46641;48.904;9.126;2023-06-24T17:36:40;99013.00;;;30.68;35.61
60820;BME280;46641;48.904;9.126;2023-06-24T17:41:30;99015.16;;;30.66;35.69
60820;BME280;46641;48.904;9.126;2023-06-24T17:46:21;99012.72;;;30.64;34.81
60820;BME280;46641;48.904;9.126;2023-06-24T17:51:11;99011.38;;;30.62;35.65
60820;BME280;46641;48.904;9.126;2023-06-24T17:56:01;99015.66;;;30.58;34.86
60820;BME280;46641;48.904;9.126;2023-06-24T18:00:51;99010.78;;;30.55;35.51
60820;BME280;46641;48.904;9.126;2023-06-24T18:05:42;99012.16;;;30.52;35.05
60820;BME280;46641;48.904;9.126;2023-06-24T18:10:32;99015.41;;;30.49;34.47
60820;BME280;46641;48.904;9.126;2023-06-24T18:15:24;99015.91;;;30.46;33.35
60820;BME280;46641;48.904;9.126;2023-06-24T18:20:16;99012.94;;;30.42;34.43
60820;BME280;46641;48.904;9.126;2023-06-24T18:25:06;99015.88;;;30.41;35.16
60820;BME280;46641;48.904;9.126;2023-06-24T18:29:57;99012.09;;;30.37;33.03
60820;BME280;46641;48.904;9.126;2023-06-24T18:34:47;99008.31;;;30.33;33.19
60820;BME280;46641;48.904;9.126;2023-06-24T18:39:37;99005.84;;;30.31;35.36
60820;BME280;46641;48.904;9.126;2023-06-24T18:44:28;99002.88;;;30.27;33.63
60820;BME280;46641;48.904;9.126;2023-06-24T18:49:19;98999.34;;;30.22;34.40
60820;BME280;46641;48.904;9.126;2023-06-24T18:54:09;98999.63;;;30.20;34.01
60820;BME280;46641;48.904;9.126;2023-06-24T18:58:59;99006.03;;;30.14;33.02
60820;BME280;46641;48.904;9.126;2023-06-24T19:03:49;99003.84;;;30.11;33.11
60820;BME280;46641;48.904;9.126;2023-06-24T19:08:40;98998.69;;;30.04;33.51
60820;BME280;46641;48.904;9.126;2023-06-24T19:13:30;99007.31;;;30.01;33.80
60820;BME280;46641;48.904;9.126;2023-06-24T19:18:20;99008.38;;;29.95;33.35
60820;BME280;46641;48.904;9.126;2023-06-24T19:23:11;99006.19;;;29.92;33.60
60820;BME280;46641;48.904;9.126;2023-06-24T19:28:01;98999.41;;;29.90;34.19
60820;BME280;46641;48.904;9.126;2023-06-24T19:32:52;98993.22;;;29.84;33.05
60820;BME280;46641;48.904;9.126;2023-06-24T19:37:43;99002.06;;;29.79;33.55
60820;BME280;46641;48.904;9.126;2023-06-24T19:42:34;99005.56;;;29.75;32.71
60820;BME280;46641;48.904;9.126;2023-06-24T19:47:25;98997.69;;;29.68;33.38
60820;BME280;46641;48.904;9.126;2023-06-24T19:52:15;99000.09;;;29.65;34.07
60820;BME280;46641;48.904;9.126;2023-06-24T19:57:05;99013.53;;;29.59;34.09
60820;BME280;46641;48.904;9.126;2023-06-24T20:01:55;99005.09;;;29.51;33.68
60820;BME280;46641;48.904;9.126;2023-06-24T20:06:46;99009.38;;;29.47;33.72
60820;BME280;46641;48.904;9.126;2023-06-24T20:11:36;99014.75;;;29.42;33.52
60820;BME280;46641;48.904;9.126;2023-06-24T20:16:26;99022.28;;;29.40;33.89
60820;BME280;46641;48.904;9.126;2023-06-24T20:21:17;99013.09;;;29.41;35.08
60820;BME280;46641;48.904;9.126;2023-06-24T20:26:07;99017.41;;;29.37;35.39
60820;BME280;46641;48.904;9.126;2023-06-24T20:30:57;99003.34;;;29.34;35.50
60820;BME280;46641;48.904;9.126;2023-06-24T20:35:52;99003.88;;;29.31;35.32
60820;BME280;46641;48.904;9.126;2023-06-24T20:40:42;99001.13;;;29.26;35.95
60820;BME280;46641;48.904;9.126;2023-06-24T20:45:33;98995.97;;;29.20;36.15
60820;BME280;46641;48.904;9.126;2023-06-24T20:50:23;98996.47;;;29.17;35.86
60820;BME280;46641;48.904;9.126;2023-06-24T20:55:13;98999.97;;;29.12;35.85
60820;BME280;46641;48.904;9.126;2023-06-24T21:00:04;98995.59;;;29.06;36.47
60820;BME280;46641;48.904;9.126;2023-06-24T21:04:55;98989.91;;;29.02;36.65
60820;BME280;46641;48.904;9.126;2023-06-24T21:09:45;98994.94;;;28.99;36.83
60820;BME280;46641;48.904;9.126;2023-06-24T21:14:35;99005.41;;;28.95;36.41
60820;BME280;46641;48.904;9.126;2023-06-24T21:19:25;99007.25;;;28.89;36.35
60820;BME280;46641;48.904;9.126;2023-06-24T21:24:16;99008.81;;;28.85;36.99
60820;BME280;46641;48.904;9.126;2023-06-24T21:29:06;99003.41;;;28.80;37.01
60820;BME280;46641;48.904;9.126;2023-06-24T21:33:56;99002.53;;;28.75;37.32
60820;BME280;46641;48.904;9.126;2023-06-24T21:38:47;99008.69;;;28.70;37.24
60820;BME280;46641;48.904;9.126;2023-06-24T21:43:37;99013.78;;;28.67;37.26
60820;BME280;46641;48.904;9.126;2023-06-24T21:48:28;99019.09;;;28.61;37.24
60820;BME280;46641;48.904;9.126;2023-06-24T21:53:20;99011.22;;;28.55;37.42
60820;BME280;46641;48.904;9.126;2023-06-24T21:58:10;99002.25;;;28.49;37.25
60820;BME280;46641;48.904;9.126;2023-06-24T22:03:01;98999.75;;;28.42;37.25
60820;BME280;46641;48.904;9.126;2023-06-24T22:07:51;99003.41;;;28.36;37.80
60820;BME280;46641;48.904;9.126;2023-06-24T22:12:41;99006.59;;;28.33;37.69
60820;BME280;46641;48.904;9.126;2023-06-24T22:17:32;99004.41;;;28.30;37.55
60820;BME280;46641;48.904;9.126;2023-06-24T22:22:22;99000.31;;;28.23;37.59
60820;BME280;46641;48.904;9.126;2023-06-24T22:27:13;98994.84;;;28.17;37.56
60820;BME280;46641;48.904;9.126;2023-06-24T22:32:03;98995.38;;;28.14;37.89
60820;BME280;46641;48.904;9.126;2023-06-24T22:36:54;98995.28;;;28.09;37.44
60820;BME280;46641;48.904;9.126;2023-06-24T22:41:44;98993.59;;;28.03;37.58
60820;BME280;46641;48.904;9.126;2023-06-24T22:46:34;98998.66;;;28.00;37.88
60820;BME280;46641;48.904;9.126;2023-06-24T22:51:24;98998.59;;;27.94;37.95
60820;BME280;46641;48.904;9.126;2023-06-24T22:56:15;98995.25;;;27.87;38.13
60820;BME280;46641;48.904;9.126;2023-06-24T23:01:05;98998.72;;;27.83;38.11
60820;BME280;46641;48.904;9.126;2023-06-24T23:05:56;98995.13;;;27.77;38.23
60820;BME280;46641;48.904;9.126;2023-06-24T23:10:47;98988.59;;;27.73;38.30
60820;BME280;46641;48.904;9.126;2023-06-24T23:15:37;98984.19;;;27.67;38.33
60820;BME280;46641;48.904;9.126;2023-06-24T23:20:28;98985.75;;;27.63;38.39
60820;BME280;46641;48.904;9.126;2023-06-24T23:25:18;98981.91;;;27.59;38.39
60820;BME280;46641;48.904;9.126;2023-06-24T23:30:09;98975.91;;;27.52;38.45
60820;BME280;46641;48.904;9.126;2023-06-24T23:35:07;98975.56;;;27.48;38.49
60820;BME280;46641;48.904;9.126;2023-06-24T23:39:58;98973.63;;;27.43;38.41
60820;BME280;46641;48.904;9.126;2023-06-24T23:44:48;98970.84;;;27.38;38.53
60820;BME280;46641;48.904;9.126;2023-06-24T23:49:38;98970.53;;;27.35;38.42
60820;BME280;46641;48.904;9.126;2023-06-24T23:54:29;98966.94;;;27.29;38.59
60820;BME280;46641;48.904;9.126;2023-06-24T23:59:19;98963.13;;;27.25;38.81
